sensor_id;sensor_type;location;lat;lon;timestamp;P1;durP1;ratioP1;P2;durP2;ratioP2
54921;SDS011;40824;45.116;21.296;2023-02-08T00:01:16;49.05;;;26.27;;
54921;SDS011;40824;45.116;21.296;2023-02-08T00:03:43;49.85;;;26.25;;
54921;SDS011;40824;45.116;21.296;2023-02-08T00:06:10;47.78;;;27.55;;
54921;SDS011;40824;45.116;21.296;2023-02-08T00:08:36;46.47;;;27.23;;
54921;SDS011;40824;45.116;21.296;2023-02-08T00:11:02;50.50;;;27.95;;
54921;SDS011;40824;45.116;21.296;2023-02-08T00:13:30;49.17;;;27.85;;
54921;SDS011;40824;45.116;21.296;2023-02-08T00:15:56;42.95;;;24.50;;
54921;SDS011;40824;45.116;21.296;2023-02-08T00:18:22;46.78;;;24.95;;
54921;SDS011;40824;45.116;21.296;2023-02-08T00:20:48;49.83;;;27.38;;
54921;SDS011;40824;45.116;21.296;2023-02-08T00:23:15;44.65;;;26.45;;
54921;SDS011;40824;45.116;21.296;2023-02-08T00:25:41;43.60;;;24.77;;
54921;SDS011;40824;45.116;21.296;2023-02-08T00:28:08;44.85;;;22.95;;
54921;SDS011;40824;45.116;21.296;2023-02-08T00:30:36;44.58;;;24.80;;
54921;SDS011;40824;45.116;21.296;2023-02-08T00:33:03;40.83;;;23.60;;
54921;SDS011;40824;45.116;21.296;2023-02-08T00:35:29;43.10;;;23.30;;
54921;SDS011;40824;45.116;21.296;2023-02-08T00:37:55;45.42;;;23.73;;
54921;SDS011;40824;45.116;21.296;2023-02-08T00:40:22;41.78;;;22.17;;
54921;SDS011;40824;45.116;21.296;2023-02-08T00:42:48;37.75;;;22.05;;
54921;SDS011;40824;45.116;21.296;2023-02-08T00:45:14;41.97;;;21.80;;
54921;SDS011;40824;45.116;21.296;2023-02-08T00:47:40;41.13;;;22.33;;
54921;SDS011;40824;45.116;21.296;2023-02-08T00:50:08;33.55;;;20.38;;
54921;SDS011;40824;45.116;21.296;2023-02-08T00:52:34;38.47;;;21.63;;
54921;SDS011;40824;45.116;21.296;2023-02-08T00:55:00;42.97;;;20.85;;
54921;SDS011;40824;45.116;21.296;2023-02-08T00:57:26;37.60;;;21.05;;
54921;SDS011;40824;45.116;21.296;2023-02-08T00:59:52;36.42;;;20.75;;
54921;SDS011;40824;45.116;21.296;2023-02-08T01:02:19;37.08;;;20.83;;
54921;SDS011;40824;45.116;21.296;2023-02-08T01:04:45;34.97;;;20.73;;
54921;SDS011;40824;45.116;21.296;2023-02-08T01:07:11;33.83;;;20.05;;
54921;SDS011;40824;45.116;21.296;2023-02-08T01:09:37;35.78;;;20.58;;
54921;SDS011;40824;45.116;21.296;2023-02-08T01:12:03;33.60;;;20.38;;
54921;SDS011;40824;45.116;21.296;2023-02-08T01:14:29;43.72;;;20.35;;
54921;SDS011;40824;45.116;21.296;2023-02-08T01:16:55;33.15;;;18.50;;
54921;SDS011;40824;45.116;21.296;2023-02-08T01:19:22;35.80;;;20.40;;
54921;SDS011;40824;45.116;21.296;2023-02-08T01:21:48;37.03;;;20.02;;
54921;SDS011;40824;45.116;21.296;2023-02-08T01:24:14;37.63;;;20.83;;
54921;SDS011;40824;45.116;21.296;2023-02-08T01:26:40;42.33;;;21.33;;
54921;SDS011;40824;45.116;21.296;2023-02-08T01:29:06;32.17;;;19.48;;
54921;SDS011;40824;45.116;21.296;2023-02-08T01:31:34;40.53;;;24.08;;
54921;SDS011;40824;45.116;21.296;2023-02-08T01:34:00;66.72;;;31.90;;
54921;SDS011;40824;45.116;21.296;2023-02-08T01:36:27;93.60;;;41.72;;
54921;SDS011;40824;45.116;21.296;2023-02-08T01:38:53;82.47;;;37.80;;
54921;SDS011;40824;45.116;21.296;2023-02-08T01:41:21;65.32;;;33.90;;
54921;SDS011;40824;45.116;21.296;2023-02-08T01:44:00;51.33;;;25.85;;
54921;SDS011;40824;45.116;21.296;2023-02-08T01:46:27;47.67;;;25.55;;
54921;SDS011;40824;45.116;21.296;2023-02-08T01:48:54;48.90;;;27.50;;
54921;SDS011;40824;45.116;21.296;2023-02-08T01:51:23;36.33;;;20.83;;
54921;SDS011;40824;45.116;21.296;2023-02-08T01:53:51;40.50;;;23.60;;
54921;SDS011;40824;45.116;21.296;2023-02-08T01:56:29;44.50;;;26.92;;
54921;SDS011;40824;45.116;21.296;2023-02-08T01:58:58;37.88;;;22.38;;
54921;SDS011;40824;45.116;21.296;2023-02-08T02:01:25;39.78;;;24.58;;
54921;SDS011;40824;45.116;21.296;2023-02-08T02:03:52;37.38;;;22.02;;
54921;SDS011;40824;45.116;21.296;2023-02-08T02:06:20;39.28;;;22.92;;
54921;SDS011;40824;45.116;21.296;2023-02-08T02:08:52;37.05;;;22.70;;
54921;SDS011;40824;45.116;21.296;2023-02-08T02:11:20;36.33;;;22.25;;
54921;SDS011;40824;45.116;21.296;2023-02-08T02:13:47;36.53;;;21.33;;
54921;SDS011;40824;45.116;21.296;2023-02-08T02:16:15;41.25;;;22.90;;
54921;SDS011;40824;45.116;21.296;2023-02-08T02:18:41;33.17;;;21.27;;
54921;SDS011;40824;45.116;21.296;2023-02-08T02:26:51;39.92;;;23.25;;
54921;SDS011;40824;45.116;21.296;2023-02-08T02:32:03;40.97;;;22.98;;
54921;SDS011;40824;45.116;21.296;2023-02-08T02:34:34;40.67;;;23.02;;
54921;SDS011;40824;45.116;21.296;2023-02-08T02:37:09;37.90;;;22.23;;
54921;SDS011;40824;45.116;21.296;2023-02-08T02:45:21;40.40;;;23.15;;
54921;SDS011;40824;45.116;21.296;2023-02-08T02:50:40;39.08;;;21.95;;
54921;SDS011;40824;45.116;21.296;2023-02-08T02:53:10;42.30;;;23.27;;
54921;SDS011;40824;45.116;21.296;2023-02-08T02:55:40;41.00;;;22.70;;
54921;SDS011;40824;45.116;21.296;2023-02-08T02:58:07;43.10;;;24.60;;
54921;SDS011;40824;45.116;21.296;2023-02-08T03:00:35;46.55;;;25.55;;
54921;SDS011;40824;45.116;21.296;2023-02-08T03:03:01;45.60;;;24.95;;
54921;SDS011;40824;45.116;21.296;2023-02-08T03:05:27;45.15;;;26.73;;
54921;SDS011;40824;45.116;21.296;2023-02-08T03:10:29;46.13;;;25.05;;
54921;SDS011;40824;45.116;21.296;2023-02-08T03:13:02;39.35;;;24.45;;
54921;SDS011;40824;45.116;21.296;2023-02-08T03:21:00;42.00;;;25.25;;
54921;SDS011;40824;45.116;21.296;2023-02-08T03:23:30;49.22;;;27.00;;
54921;SDS011;40824;45.116;21.296;2023-02-08T03:28:47;44.15;;;26.83;;
54921;SDS011;40824;45.116;21.296;2023-02-08T03:31:18;39.70;;;23.42;;
54921;SDS011;40824;45.116;21.296;2023-02-08T03:38:53;39.70;;;23.27;;
54921;SDS011;40824;45.116;21.296;2023-02-08T03:41:22;41.15;;;23.15;;
54921;SDS011;40824;45.116;21.296;2023-02-08T03:43:51;40.58;;;23.05;;
54921;SDS011;40824;45.116;21.296;2023-02-08T03:46:24;44.38;;;25.92;;
54921;SDS011;40824;45.116;21.296;2023-02-08T03:48:54;58.08;;;28.00;;
54921;SDS011;40824;45.116;21.296;2023-02-08T03:51:22;45.92;;;26.38;;
54921;SDS011;40824;45.116;21.296;2023-02-08T03:53:49;44.75;;;26.60;;
54921;SDS011;40824;45.116;21.296;2023-02-08T03:56:17;50.20;;;29.15;;
54921;SDS011;40824;45.116;21.296;2023-02-08T03:58:53;51.65;;;28.73;;
54921;SDS011;40824;45.116;21.296;2023-02-08T04:01:22;49.40;;;28.58;;
54921;SDS011;40824;45.116;21.296;2023-02-08T04:03:51;49.67;;;28.90;;
54921;SDS011;40824;45.116;21.296;2023-02-08T04:06:18;50.90;;;29.80;;
54921;SDS011;40824;45.116;21.296;2023-02-08T04:08:45;58.75;;;32.15;;
54921;SDS011;40824;45.116;21.296;2023-02-08T04:11:11;52.95;;;29.65;;
54921;SDS011;40824;45.116;21.296;2023-02-08T04:13:37;51.10;;;31.33;;
54921;SDS011;40824;45.116;21.296;2023-02-08T04:16:03;56.70;;;31.83;;
54921;SDS011;40824;45.116;21.296;2023-02-08T04:18:29;55.72;;;32.55;;
54921;SDS011;40824;45.116;21.296;2023-02-08T04:20:55;57.42;;;32.65;;
54921;SDS011;40824;45.116;21.296;2023-02-08T04:23:21;64.35;;;33.30;;
54921;SDS011;40824;45.116;21.296;2023-02-08T04:25:48;58.47;;;31.58;;
54921;SDS011;40824;45.116;21.296;2023-02-08T04:28:14;55.35;;;29.67;;
54921;SDS011;40824;45.116;21.296;2023-02-08T04:30:40;48.42;;;29.23;;
54921;SDS011;40824;45.116;21.296;2023-02-08T04:33:06;51.90;;;28.50;;
54921;SDS011;40824;45.116;21.296;2023-02-08T04:35:32;48.03;;;27.48;;
54921;SDS011;40824;45.116;21.296;2023-02-08T04:37:59;43.90;;;26.73;;
54921;SDS011;40824;45.116;21.296;2023-02-08T04:40:25;47.85;;;28.20;;
54921;SDS011;40824;45.116;21.296;2023-02-08T04:42:51;44.83;;;25.73;;
54921;SDS011;40824;45.116;21.296;2023-02-08T04:45:17;46.17;;;26.55;;
54921;SDS011;40824;45.116;21.296;2023-02-08T04:47:43;55.60;;;28.83;;
54921;SDS011;40824;45.116;21.296;2023-02-08T04:50:09;44.92;;;26.42;;
54921;SDS011;40824;45.116;21.296;2023-02-08T04:52:35;52.65;;;29.45;;
54921;SDS011;40824;45.116;21.296;2023-02-08T04:55:01;47.75;;;26.92;;
54921;SDS011;40824;45.116;21.296;2023-02-08T04:57:27;46.47;;;27.05;;
54921;SDS011;40824;45.116;21.296;2023-02-08T04:59:53;42.17;;;25.77;;
54921;SDS011;40824;45.116;21.296;2023-02-08T05:02:19;42.55;;;25.20;;
54921;SDS011;40824;45.116;21.296;2023-02-08T05:04:46;44.25;;;26.15;;
54921;SDS011;40824;45.116;21.296;2023-02-08T05:07:12;48.15;;;27.17;;
54921;SDS011;40824;45.116;21.296;2023-02-08T05:09:38;45.30;;;28.10;;
54921;SDS011;40824;45.116;21.296;2023-02-08T05:12:04;48.45;;;27.65;;
54921;SDS011;40824;45.116;21.296;2023-02-08T05:14:30;49.75;;;28.10;;
54921;SDS011;40824;45.116;21.296;2023-02-08T05:16:56;52.35;;;28.55;;
54921;SDS011;40824;45.116;21.296;2023-02-08T05:19:22;67.80;;;33.35;;
54921;SDS011;40824;45.116;21.296;2023-02-08T05:21:48;49.92;;;27.55;;
54921;SDS011;40824;45.116;21.296;2023-02-08T05:24:15;46.80;;;27.38;;
54921;SDS011;40824;45.116;21.296;2023-02-08T05:26:41;47.40;;;24.75;;
54921;SDS011;40824;45.116;21.296;2023-02-08T05:29:07;47.88;;;25.23;;
54921;SDS011;40824;45.116;21.296;2023-02-08T05:31:34;43.65;;;24.48;;
54921;SDS011;40824;45.116;21.296;2023-02-08T05:34:00;43.20;;;25.05;;
54921;SDS011;40824;45.116;21.296;2023-02-08T05:36:26;43.88;;;26.52;;
54921;SDS011;40824;45.116;21.296;2023-02-08T05:38:52;45.05;;;27.52;;
54921;SDS011;40824;45.116;21.296;2023-02-08T05:41:18;44.05;;;25.55;;
54921;SDS011;40824;45.116;21.296;2023-02-08T05:43:44;46.28;;;27.98;;
54921;SDS011;40824;45.116;21.296;2023-02-08T05:46:10;44.22;;;25.48;;
54921;SDS011;40824;45.116;21.296;2023-02-08T05:48:36;48.40;;;27.83;;
54921;SDS011;40824;45.116;21.296;2023-02-08T05:51:02;65.93;;;34.10;;
54921;SDS011;40824;45.116;21.296;2023-02-08T05:53:29;46.38;;;24.67;;
54921;SDS011;40824;45.116;21.296;2023-02-08T05:55:55;48.63;;;28.13;;
54921;SDS011;40824;45.116;21.296;2023-02-08T05:58:22;50.00;;;28.33;;
54921;SDS011;40824;45.116;21.296;2023-02-08T06:00:48;46.50;;;28.42;;
54921;SDS011;40824;45.116;21.296;2023-02-08T06:03:14;49.50;;;29.30;;
54921;SDS011;40824;45.116;21.296;2023-02-08T06:05:40;55.08;;;30.45;;
54921;SDS011;40824;45.116;21.296;2023-02-08T06:08:07;49.70;;;28.85;;
54921;SDS011;40824;45.116;21.296;2023-02-08T06:10:33;47.60;;;30.10;;
54921;SDS011;40824;45.116;21.296;2023-02-08T06:13:00;49.45;;;29.88;;
54921;SDS011;40824;45.116;21.296;2023-02-08T06:15:26;104.00;;;63.30;;
54921;SDS011;40824;45.116;21.296;2023-02-08T06:17:52;75.93;;;48.95;;
54921;SDS011;40824;45.116;21.296;2023-02-08T06:20:18;55.45;;;33.10;;
54921;SDS011;40824;45.116;21.296;2023-02-08T06:22:44;59.53;;;35.78;;
54921;SDS011;40824;45.116;21.296;2023-02-08T06:25:10;58.50;;;35.50;;
54921;SDS011;40824;45.116;21.296;2023-02-08T06:27:36;55.10;;;31.80;;
54921;SDS011;40824;45.116;21.296;2023-02-08T06:30:02;46.92;;;28.70;;
54921;SDS011;40824;45.116;21.296;2023-02-08T06:32:28;46.10;;;28.58;;
54921;SDS011;40824;45.116;21.296;2023-02-08T06:34:53;42.72;;;24.67;;
54921;SDS011;40824;45.116;21.296;2023-02-08T06:37:22;51.92;;;30.60;;
54921;SDS011;40824;45.116;21.296;2023-02-08T06:39:49;50.97;;;30.90;;
54921;SDS011;40824;45.116;21.296;2023-02-08T06:42:15;46.90;;;31.33;;
54921;SDS011;40824;45.116;21.296;2023-02-08T06:44:40;42.92;;;28.17;;
54921;SDS011;40824;45.116;21.296;2023-02-08T06:47:06;42.17;;;28.58;;
54921;SDS011;40824;45.116;21.296;2023-02-08T06:49:32;42.20;;;27.92;;
54921;SDS011;40824;45.116;21.296;2023-02-08T06:51:58;39.25;;;28.23;;
54921;SDS011;40824;45.116;21.296;2023-02-08T06:54:24;45.60;;;29.60;;
54921;SDS011;40824;45.116;21.296;2023-02-08T06:56:50;45.33;;;32.83;;
54921;SDS011;40824;45.116;21.296;2023-02-08T06:59:16;41.22;;;30.48;;
54921;SDS011;40824;45.116;21.296;2023-02-08T07:01:42;37.25;;;26.58;;
54921;SDS011;40824;45.116;21.296;2023-02-08T07:04:10;42.10;;;29.95;;
54921;SDS011;40824;45.116;21.296;2023-02-08T07:06:36;39.08;;;29.02;;
54921;SDS011;40824;45.116;21.296;2023-02-08T07:09:02;46.40;;;33.65;;
54921;SDS011;40824;45.116;21.296;2023-02-08T07:11:29;38.60;;;28.10;;
54921;SDS011;40824;45.116;21.296;2023-02-08T07:13:57;35.63;;;26.55;;
54921;SDS011;40824;45.116;21.296;2023-02-08T07:16:22;40.28;;;25.98;;
54921;SDS011;40824;45.116;21.296;2023-02-08T07:18:48;36.88;;;25.50;;
54921;SDS011;40824;45.116;21.296;2023-02-08T07:21:14;32.22;;;24.83;;
54921;SDS011;40824;45.116;21.296;2023-02-08T07:23:40;44.20;;;27.40;;
54921;SDS011;40824;45.116;21.296;2023-02-08T07:26:08;39.53;;;28.23;;
54921;SDS011;40824;45.116;21.296;2023-02-08T07:28:36;32.47;;;24.25;;
54921;SDS011;40824;45.116;21.296;2023-02-08T07:31:08;32.50;;;26.73;;
54921;SDS011;40824;45.116;21.296;2023-02-08T07:33:34;34.67;;;26.83;;
54921;SDS011;40824;45.116;21.296;2023-02-08T07:36:00;39.25;;;29.85;;
54921;SDS011;40824;45.116;21.296;2023-02-08T07:38:27;37.42;;;29.00;;
54921;SDS011;40824;45.116;21.296;2023-02-08T07:40:59;29.77;;;25.50;;
54921;SDS011;40824;45.116;21.296;2023-02-08T07:43:25;33.90;;;25.10;;
54921;SDS011;40824;45.116;21.296;2023-02-08T07:45:51;30.40;;;24.13;;
54921;SDS011;40824;45.116;21.296;2023-02-08T07:48:17;30.30;;;24.77;;
54921;SDS011;40824;45.116;21.296;2023-02-08T07:50:42;31.02;;;25.38;;
54921;SDS011;40824;45.116;21.296;2023-02-08T07:53:08;29.65;;;23.17;;
54921;SDS011;40824;45.116;21.296;2023-02-08T07:55:34;34.05;;;25.45;;
54921;SDS011;40824;45.116;21.296;2023-02-08T07:57:59;32.58;;;26.05;;
54921;SDS011;40824;45.116;21.296;2023-02-08T08:00:25;32.45;;;28.63;;
54921;SDS011;40824;45.116;21.296;2023-02-08T08:02:51;33.40;;;25.55;;
54921;SDS011;40824;45.116;21.296;2023-02-08T08:05:17;31.52;;;24.05;;
54921;SDS011;40824;45.116;21.296;2023-02-08T08:07:43;34.25;;;23.13;;
54921;SDS011;40824;45.116;21.296;2023-02-08T08:10:09;32.15;;;24.02;;
54921;SDS011;40824;45.116;21.296;2023-02-08T08:12:34;31.05;;;23.90;;
54921;SDS011;40824;45.116;21.296;2023-02-08T08:15:01;31.90;;;24.08;;
54921;SDS011;40824;45.116;21.296;2023-02-08T08:17:26;28.10;;;21.90;;
54921;SDS011;40824;45.116;21.296;2023-02-08T08:19:52;28.08;;;21.85;;
54921;SDS011;40824;45.116;21.296;2023-02-08T08:22:17;27.77;;;23.80;;
54921;SDS011;40824;45.116;21.296;2023-02-08T08:24:43;26.67;;;22.27;;
54921;SDS011;40824;45.116;21.296;2023-02-08T08:27:09;30.48;;;23.58;;
54921;SDS011;40824;45.116;21.296;2023-02-08T08:29:35;27.88;;;23.25;;
54921;SDS011;40824;45.116;21.296;2023-02-08T08:32:02;26.33;;;21.80;;
54921;SDS011;40824;45.116;21.296;2023-02-08T08:34:28;29.42;;;22.98;;
54921;SDS011;40824;45.116;21.296;2023-02-08T08:36:58;26.67;;;22.80;;
54921;SDS011;40824;45.116;21.296;2023-02-08T08:39:25;25.50;;;21.67;;
54921;SDS011;40824;45.116;21.296;2023-02-08T08:42:00;26.33;;;21.58;;
54921;SDS011;40824;45.116;21.296;2023-02-08T08:44:28;31.40;;;22.58;;
54921;SDS011;40824;45.116;21.296;2023-02-08T08:46:54;26.33;;;21.85;;
54921;SDS011;40824;45.116;21.296;2023-02-08T08:49:24;26.45;;;21.42;;
54921;SDS011;40824;45.116;21.296;2023-02-08T08:51:51;32.03;;;21.55;;
54921;SDS011;40824;45.116;21.296;2023-02-08T08:54:17;26.00;;;20.85;;
54921;SDS011;40824;45.116;21.296;2023-02-08T08:56:43;25.15;;;21.02;;
54921;SDS011;40824;45.116;21.296;2023-02-08T08:59:09;26.17;;;21.88;;
54921;SDS011;40824;45.116;21.296;2023-02-08T09:01:35;24.60;;;21.08;;
54921;SDS011;40824;45.116;21.296;2023-02-08T09:04:02;26.63;;;21.77;;
54921;SDS011;40824;45.116;21.296;2023-02-08T09:06:28;25.30;;;21.58;;
54921;SDS011;40824;45.116;21.296;2023-02-08T09:08:54;26.45;;;19.23;;
54921;SDS011;40824;45.116;21.296;2023-02-08T09:11:20;26.63;;;21.50;;
54921;SDS011;40824;45.116;21.296;2023-02-08T09:13:45;25.23;;;20.58;;
54921;SDS011;40824;45.116;21.296;2023-02-08T09:16:13;23.08;;;20.58;;
54921;SDS011;40824;45.116;21.296;2023-02-08T09:18:41;21.98;;;19.10;;
54921;SDS011;40824;45.116;21.296;2023-02-08T09:21:08;24.58;;;20.55;;
54921;SDS011;40824;45.116;21.296;2023-02-08T09:23:34;25.52;;;21.67;;
54921;SDS011;40824;45.116;21.296;2023-02-08T09:26:01;23.95;;;20.95;;
54921;SDS011;40824;45.116;21.296;2023-02-08T09:28:27;24.75;;;21.95;;
54921;SDS011;40824;45.116;21.296;2023-02-08T09:30:53;26.13;;;22.17;;
54921;SDS011;40824;45.116;21.296;2023-02-08T09:33:19;26.17;;;21.83;;
54921;SDS011;40824;45.116;21.296;2023-02-08T09:35:45;25.40;;;20.65;;
54921;SDS011;40824;45.116;21.296;2023-02-08T09:38:11;27.90;;;22.65;;
54921;SDS011;40824;45.116;21.296;2023-02-08T09:40:48;26.25;;;21.95;;
54921;SDS011;40824;45.116;21.296;2023-02-08T09:45:55;25.05;;;21.40;;
54921;SDS011;40824;45.116;21.296;2023-02-08T09:48:23;25.30;;;21.75;;
54921;SDS011;40824;45.116;21.296;2023-02-08T09:50:52;24.08;;;21.45;;
54921;SDS011;40824;45.116;21.296;2023-02-08T09:53:31;28.48;;;25.02;;
54921;SDS011;40824;45.116;21.296;2023-02-08T09:55:59;28.77;;;21.85;;
54921;SDS011;40824;45.116;21.296;2023-02-08T09:58:33;26.00;;;22.42;;
54921;SDS011;40824;45.116;21.296;2023-02-08T10:01:00;26.05;;;22.75;;
54921;SDS011;40824;45.116;21.296;2023-02-08T10:03:33;25.55;;;22.45;;
54921;SDS011;40824;45.116;21.296;2023-02-08T10:06:11;28.08;;;21.88;;
54921;SDS011;40824;45.116;21.296;2023-02-08T10:08:38;22.23;;;19.15;;
54921;SDS011;40824;45.116;21.296;2023-02-08T10:16:37;26.17;;;21.73;;
54921;SDS011;40824;45.116;21.296;2023-02-08T10:21:55;24.13;;;21.52;;
54921;SDS011;40824;45.116;21.296;2023-02-08T10:26:59;25.87;;;21.83;;
54921;SDS011;40824;45.116;21.296;2023-02-08T10:34:53;26.80;;;23.67;;
54921;SDS011;40824;45.116;21.296;2023-02-08T10:37:31;22.00;;;18.30;;
54921;SDS011;40824;45.116;21.296;2023-02-08T10:40:06;20.45;;;18.25;;
54921;SDS011;40824;45.116;21.296;2023-02-08T10:45:42;22.83;;;19.00;;
54921;SDS011;40824;45.116;21.296;2023-02-08T10:48:36;24.77;;;19.70;;
54921;SDS011;40824;45.116;21.296;2023-02-08T10:51:03;19.65;;;17.10;;
54921;SDS011;40824;45.116;21.296;2023-02-08T10:53:29;19.05;;;16.98;;
54921;SDS011;40824;45.116;21.296;2023-02-08T10:55:56;20.00;;;17.52;;
54921;SDS011;40824;45.116;21.296;2023-02-08T10:58:23;23.90;;;19.85;;
54921;SDS011;40824;45.116;21.296;2023-02-08T11:00:50;22.27;;;16.92;;
54921;SDS011;40824;45.116;21.296;2023-02-08T11:05:43;24.33;;;19.13;;
54921;SDS011;40824;45.116;21.296;2023-02-08T11:08:15;21.00;;;16.52;;
54921;SDS011;40824;45.116;21.296;2023-02-08T11:10:45;18.17;;;15.80;;
54921;SDS011;40824;45.116;21.296;2023-02-08T11:13:20;17.70;;;15.77;;
54921;SDS011;40824;45.116;21.296;2023-02-08T11:15:47;19.63;;;16.40;;
54921;SDS011;40824;45.116;21.296;2023-02-08T11:23:33;20.20;;;16.73;;
54921;SDS011;40824;45.116;21.296;2023-02-08T11:28:39;16.33;;;14.38;;
54921;SDS011;40824;45.116;21.296;2023-02-08T11:31:16;22.77;;;16.77;;
54921;SDS011;40824;45.116;21.296;2023-02-08T11:33:57;20.73;;;15.52;;
54921;SDS011;40824;45.116;21.296;2023-02-08T11:36:28;17.05;;;12.90;;
54921;SDS011;40824;45.116;21.296;2023-02-08T11:38:55;21.48;;;13.70;;
54921;SDS011;40824;45.116;21.296;2023-02-08T11:41:21;14.68;;;12.40;;
54921;SDS011;40824;45.116;21.296;2023-02-08T11:43:55;17.20;;;13.70;;
54921;SDS011;40824;45.116;21.296;2023-02-08T11:46:26;15.23;;;13.63;;
54921;SDS011;40824;45.116;21.296;2023-02-08T11:48:54;14.70;;;12.80;;
54921;SDS011;40824;45.116;21.296;2023-02-08T11:51:27;18.10;;;13.40;;
54921;SDS011;40824;45.116;21.296;2023-02-08T11:54:02;15.95;;;13.02;;
54921;SDS011;40824;45.116;21.296;2023-02-08T11:56:30;16.58;;;12.60;;
54921;SDS011;40824;45.116;21.296;2023-02-08T12:01:38;15.63;;;12.80;;
54921;SDS011;40824;45.116;21.296;2023-02-08T12:04:11;19.55;;;11.95;;
54921;SDS011;40824;45.116;21.296;2023-02-08T12:15:10;17.77;;;14.93;;
54921;SDS011;40824;45.116;21.296;2023-02-08T12:51:25;24.10;;;19.17;;
54921;SDS011;40824;45.116;21.296;2023-02-08T12:53:56;26.50;;;21.42;;
54921;SDS011;40824;45.116;21.296;2023-02-08T12:56:44;23.48;;;20.55;;
54921;SDS011;40824;45.116;21.296;2023-02-08T12:59:22;28.73;;;21.98;;
54921;SDS011;40824;45.116;21.296;2023-02-08T13:01:58;25.05;;;20.92;;
54921;SDS011;40824;45.116;21.296;2023-02-08T13:04:32;25.98;;;21.40;;
54921;SDS011;40824;45.116;21.296;2023-02-08T13:07:08;24.35;;;21.20;;
54921;SDS011;40824;45.116;21.296;2023-02-08T13:09:59;31.85;;;23.27;;
54921;SDS011;40824;45.116;21.296;2023-02-08T13:12:39;28.35;;;21.70;;
54921;SDS011;40824;45.116;21.296;2023-02-08T13:17:44;26.27;;;19.48;;
54921;SDS011;40824;45.116;21.296;2023-02-08T13:23:01;22.05;;;17.38;;
54921;SDS011;40824;45.116;21.296;2023-02-08T13:25:29;24.33;;;19.10;;
54921;SDS011;40824;45.116;21.296;2023-02-08T13:27:59;25.65;;;19.02;;
54921;SDS011;40824;45.116;21.296;2023-02-08T13:30:25;25.65;;;19.10;;
54921;SDS011;40824;45.116;21.296;2023-02-08T13:32:51;26.13;;;18.73;;
54921;SDS011;40824;45.116;21.296;2023-02-08T13:35:18;26.50;;;17.90;;
54921;SDS011;40824;45.116;21.296;2023-02-08T13:37:57;26.20;;;19.15;;
54921;SDS011;40824;45.116;21.296;2023-02-08T13:40:26;28.20;;;18.15;;
54921;SDS011;40824;45.116;21.296;2023-02-08T13:42:57;26.38;;;18.15;;
54921;SDS011;40824;45.116;21.296;2023-02-08T13:45:26;28.05;;;19.25;;
54921;SDS011;40824;45.116;21.296;2023-02-08T13:47:57;30.20;;;20.30;;
54921;SDS011;40824;45.116;21.296;2023-02-08T13:50:38;44.47;;;29.90;;
54921;SDS011;40824;45.116;21.296;2023-02-08T13:56:19;28.90;;;19.40;;
54921;SDS011;40824;45.116;21.296;2023-02-08T13:59:01;28.98;;;20.13;;
54921;SDS011;40824;45.116;21.296;2023-02-08T14:01:33;27.63;;;18.77;;
54921;SDS011;40824;45.116;21.296;2023-02-08T14:06:31;29.75;;;19.63;;
54921;SDS011;40824;45.116;21.296;2023-02-08T14:09:07;35.15;;;23.23;;
54921;SDS011;40824;45.116;21.296;2023-02-08T14:11:53;35.80;;;23.65;;
54921;SDS011;40824;45.116;21.296;2023-02-08T14:14:40;32.22;;;22.23;;
54921;SDS011;40824;45.116;21.296;2023-02-08T14:17:08;31.63;;;22.90;;
54921;SDS011;40824;45.116;21.296;2023-02-08T14:19:54;32.88;;;22.17;;
54921;SDS011;40824;45.116;21.296;2023-02-08T14:22:25;30.73;;;20.23;;
54921;SDS011;40824;45.116;21.296;2023-02-08T14:25:05;30.75;;;22.05;;
54921;SDS011;40824;45.116;21.296;2023-02-08T14:27:48;38.35;;;22.63;;
54921;SDS011;40824;45.116;21.296;2023-02-08T14:32:44;33.53;;;23.10;;
54921;SDS011;40824;45.116;21.296;2023-02-08T14:48:47;33.05;;;21.25;;
54921;SDS011;40824;45.116;21.296;2023-02-08T14:51:14;34.40;;;23.90;;
54921;SDS011;40824;45.116;21.296;2023-02-08T14:58:42;31.17;;;19.98;;
54921;SDS011;40824;45.116;21.296;2023-02-08T15:01:20;34.30;;;21.90;;
54921;SDS011;40824;45.116;21.296;2023-02-08T15:03:47;31.95;;;20.75;;
54921;SDS011;40824;45.116;21.296;2023-02-08T15:08:50;35.97;;;23.25;;
54921;SDS011;40824;45.116;21.296;2023-02-08T15:11:23;60.90;;;41.85;;
54921;SDS011;40824;45.116;21.296;2023-02-08T15:13:52;126.88;;;96.50;;
54921;SDS011;40824;45.116;21.296;2023-02-08T15:16:19;97.32;;;71.20;;
54921;SDS011;40824;45.116;21.296;2023-02-08T15:18:45;76.38;;;50.05;;
54921;SDS011;40824;45.116;21.296;2023-02-08T15:21:14;69.57;;;46.97;;
54921;SDS011;40824;45.116;21.296;2023-02-08T15:23:41;85.00;;;61.33;;
54921;SDS011;40824;45.116;21.296;2023-02-08T15:26:18;62.88;;;42.67;;
54921;SDS011;40824;45.116;21.296;2023-02-08T15:28:45;52.30;;;34.35;;
54921;SDS011;40824;45.116;21.296;2023-02-08T15:31:18;53.22;;;36.03;;
54921;SDS011;40824;45.116;21.296;2023-02-08T15:33:45;60.90;;;37.83;;
54921;SDS011;40824;45.116;21.296;2023-02-08T15:36:16;58.80;;;37.20;;
54921;SDS011;40824;45.116;21.296;2023-02-08T15:38:43;52.38;;;32.88;;
54921;SDS011;40824;45.116;21.296;2023-02-08T15:41:10;90.85;;;68.18;;
54921;SDS011;40824;45.116;21.296;2023-02-08T15:43:37;61.63;;;42.63;;
54921;SDS011;40824;45.116;21.296;2023-02-08T15:46:15;72.13;;;54.78;;
54921;SDS011;40824;45.116;21.296;2023-02-08T15:48:43;62.63;;;42.03;;
54921;SDS011;40824;45.116;21.296;2023-02-08T15:51:10;57.08;;;37.53;;
54921;SDS011;40824;45.116;21.296;2023-02-08T15:53:45;90.13;;;62.20;;
54921;SDS011;40824;45.116;21.296;2023-02-08T15:56:15;69.72;;;46.10;;
54921;SDS011;40824;45.116;21.296;2023-02-08T15:58:43;68.50;;;42.17;;
54921;SDS011;40824;45.116;21.296;2023-02-08T16:01:17;63.25;;;38.80;;
54921;SDS011;40824;45.116;21.296;2023-02-08T16:03:58;47.90;;;32.88;;
54921;SDS011;40824;45.116;21.296;2023-02-08T16:06:26;61.40;;;39.08;;
54921;SDS011;40824;45.116;21.296;2023-02-08T16:08:53;49.17;;;30.58;;
54921;SDS011;40824;45.116;21.296;2023-02-08T16:11:21;43.15;;;27.05;;
54921;SDS011;40824;45.116;21.296;2023-02-08T16:13:49;40.78;;;25.90;;
54921;SDS011;40824;45.116;21.296;2023-02-08T16:18:54;30.63;;;20.75;;
54921;SDS011;40824;45.116;21.296;2023-02-08T16:21:27;34.95;;;22.60;;
54921;SDS011;40824;45.116;21.296;2023-02-08T16:24:03;35.10;;;23.10;;
54921;SDS011;40824;45.116;21.296;2023-02-08T16:26:32;32.30;;;20.80;;
54921;SDS011;40824;45.116;21.296;2023-02-08T16:31:26;58.85;;;37.53;;
54921;SDS011;40824;45.116;21.296;2023-02-08T16:36:30;36.70;;;25.10;;
54921;SDS011;40824;45.116;21.296;2023-02-08T16:44:30;43.45;;;25.15;;
54921;SDS011;40824;45.116;21.296;2023-02-08T16:46:57;41.92;;;25.73;;
54921;SDS011;40824;45.116;21.296;2023-02-08T16:49:23;31.80;;;21.52;;
54921;SDS011;40824;45.116;21.296;2023-02-08T16:51:50;35.60;;;22.63;;
54921;SDS011;40824;45.116;21.296;2023-02-08T16:54:20;37.60;;;24.48;;